createdAt,value
2022-12-18T00:00:53.933Z,-1.6
2022-12-18T00:01:54.362Z,-1.6
2022-12-18T00:02:54.987Z,-1.6
2022-12-18T00:03:55.614Z,-1.6
2022-12-18T00:04:56.129Z,-1.6
2022-12-18T00:05:56.392Z,-1.6
2022-12-18T00:06:56.527Z,-1.6
2022-12-18T00:07:56.660Z,-1.6
2022-12-18T00:08:56.810Z,-1.6
2022-12-18T00:09:56.949Z,-1.6
2022-12-18T00:11:00.714Z,-1.6
2022-12-18T00:12:22.983Z,-1.6
2022-12-18T00:13:23.130Z,-1.6
2022-12-18T00:14:23.268Z,-1.6
2022-12-18T00:15:23.400Z,-1.6
2022-12-18T00:16:23.765Z,-1.6
2022-12-18T00:17:24.043Z,-1.6
2022-12-18T00:18:24.186Z,-1.6
2022-12-18T00:19:24.316Z,-1.6
2022-12-18T00:20:24.448Z,-1.6
2022-12-18T00:21:24.583Z,-1.6
2022-12-18T00:22:24.709Z,-1.6
2022-12-18T00:23:24.851Z,-1.6
2022-12-18T00:24:24.983Z,-1.6
2022-12-18T00:25:25.119Z,-1.6
2022-12-18T00:26:25.257Z,-1.6
2022-12-18T00:27:25.382Z,-1.6
2022-12-18T00:28:25.516Z,-1.6
2022-12-18T00:29:25.647Z,-1.6
2022-12-18T00:30:25.777Z,-1.6
2022-12-18T00:31:26.416Z,-1.6
2022-12-18T00:32:26.722Z,-1.6
2022-12-18T00:33:26.873Z,-1.6
2022-12-18T00:34:27.007Z,-1.6
2022-12-18T00:35:27.185Z,-1.6
2022-12-18T00:36:27.313Z,-1.6
2022-12-18T00:37:27.448Z,-1.6
2022-12-18T00:38:27.973Z,-1.6
2022-12-18T00:39:28.115Z,-1.6
2022-12-18T00:40:28.254Z,-1.6
2022-12-18T00:41:28.388Z,-1.6
2022-12-18T00:42:28.524Z,-1.6
2022-12-18T00:43:28.657Z,-1.6
2022-12-18T00:44:28.791Z,-1.6
2022-12-18T00:45:29.065Z,-1.6
2022-12-18T00:46:29.312Z,-1.6
2022-12-18T00:47:29.452Z,-1.6
2022-12-18T00:48:29.592Z,-1.6
2022-12-18T00:49:29.736Z,-1.6
2022-12-18T00:50:29.874Z,-1.6
2022-12-18T00:51:30.007Z,-1.6
2022-12-18T00:52:30.146Z,-1.6
2022-12-18T00:53:30.284Z,-1.6
2022-12-18T00:54:30.418Z,-1.6
2022-12-18T00:55:30.558Z,-1.6
2022-12-18T00:56:30.686Z,-1.6
2022-12-18T00:57:30.814Z,-1.6
2022-12-18T00:58:30.947Z,-1.6
2022-12-18T00:59:31.072Z,-1.6
2022-12-18T01:00:31.203Z,-1.6
2022-12-18T01:01:31.626Z,-1.6
2022-12-18T01:02:32.149Z,-1.6
2022-12-18T01:03:32.516Z,-1.6
2022-12-18T01:04:32.663Z,-1.6
2022-12-18T01:05:32.823Z,-1.6
2022-12-18T01:06:32.951Z,-1.6
2022-12-18T01:07:33.106Z,-1.6
2022-12-18T01:08:33.249Z,-1.6
2022-12-18T01:09:33.461Z,-1.6
2022-12-18T01:10:33.919Z,-1.5
2022-12-18T01:11:34.047Z,-1.5
2022-12-18T01:12:34.189Z,-1.5
2022-12-18T01:13:34.332Z,-1.5
2022-12-18T01:14:34.473Z,-1.5
2022-12-18T01:15:34.604Z,-1.5
2022-12-18T01:16:34.842Z,-1.5
2022-12-18T01:17:35.055Z,-1.5
2022-12-18T01:18:35.183Z,-1.5
2022-12-18T01:19:35.331Z,-1.5
2022-12-18T01:20:35.482Z,-1.5
2022-12-18T01:21:35.618Z,-1.5
2022-12-18T01:22:35.759Z,-1.5
2022-12-18T01:23:36.837Z,-1.5
2022-12-18T01:24:37.818Z,-1.5
2022-12-18T01:25:37.949Z,-1.5
2022-12-18T01:26:38.078Z,-1.5
2022-12-18T01:27:38.219Z,-1.5
2022-12-18T01:28:39.331Z,-1.5
2022-12-18T01:29:41.369Z,-1.5
2022-12-18T01:30:41.508Z,-1.5
2022-12-18T01:31:41.821Z,-1.5
2022-12-18T01:32:42.117Z,-1.5
2022-12-18T01:33:42.242Z,-1.5
2022-12-18T01:34:42.384Z,-1.5
2022-12-18T01:35:42.525Z,-1.5
2022-12-18T01:36:42.666Z,-1.5
2022-12-18T01:37:42.803Z,-1.5
2022-12-18T01:38:42.955Z,-1.5
2022-12-18T01:39:43.071Z,-1.5
2022-12-18T01:40:43.185Z,-1.6
2022-12-18T01:41:43.315Z,-1.6
2022-12-18T01:42:43.453Z,-1.6
2022-12-18T01:43:43.583Z,-1.6
2022-12-18T01:44:43.713Z,-1.6
2022-12-18T01:45:43.959Z,-1.6
2022-12-18T01:46:44.222Z,-1.6
2022-12-18T01:47:46.234Z,-1.6
2022-12-18T01:48:46.741Z,-1.6
2022-12-18T01:49:46.876Z,-1.6
2022-12-18T01:50:47.007Z,-1.6
2022-12-18T01:51:47.136Z,-1.6
2022-12-18T01:52:47.272Z,-1.6
2022-12-18T01:53:47.409Z,-1.6
2022-12-18T01:54:47.558Z,-1.6
2022-12-18T01:55:47.705Z,-1.6
2022-12-18T01:56:47.835Z,-1.6
2022-12-18T01:57:47.969Z,-1.6
2022-12-18T01:58:48.136Z,-1.6
2022-12-18T01:59:48.269Z,-1.6
2022-12-18T02:00:48.744Z,-1.6
2022-12-18T02:01:49.327Z,-1.6
2022-12-18T02:02:50.124Z,-1.6
2022-12-18T02:03:50.536Z,-1.6
2022-12-18T02:04:50.665Z,-1.6
2022-12-18T02:05:50.806Z,-1.6
2022-12-18T02:06:51.806Z,-1.6
2022-12-18T02:07:53.009Z,-1.6
2022-12-18T02:08:53.149Z,-1.6
2022-12-18T02:09:53.278Z,-1.6
2022-12-18T02:10:53.413Z,-1.6
2022-12-18T02:11:53.547Z,-1.6
2022-12-18T02:12:53.674Z,-1.6
2022-12-18T02:13:53.809Z,-1.6
2022-12-18T02:14:53.941Z,-1.6
2022-12-18T02:15:54.100Z,-1.6
2022-12-18T02:16:54.360Z,-1.6
2022-12-18T02:17:54.657Z,-1.6
2022-12-18T02:18:54.791Z,-1.6
2022-12-18T02:19:54.927Z,-1.6
2022-12-18T02:20:55.086Z,-1.6
2022-12-18T02:21:55.235Z,-1.6
2022-12-18T02:22:55.380Z,-1.6
2022-12-18T02:23:55.547Z,-1.6
2022-12-18T02:24:55.760Z,-1.6
2022-12-18T02:25:55.900Z,-1.6
2022-12-18T02:26:56.050Z,-1.6
2022-12-18T02:27:56.187Z,-1.6
2022-12-18T02:28:56.340Z,-1.6
2022-12-18T02:29:59.191Z,-1.6
2022-12-18T02:30:59.484Z,-1.5
2022-12-18T02:31:59.695Z,-1.5
2022-12-18T02:32:59.822Z,-1.5
2022-12-18T02:33:59.956Z,-1.5
2022-12-18T02:35:00.095Z,-1.5
2022-12-18T02:36:00.231Z,-1.5
2022-12-18T02:37:00.366Z,-1.5
2022-12-18T02:38:00.500Z,-1.5
2022-12-18T02:39:00.633Z,-1.5
2022-12-18T02:40:00.769Z,-1.5
2022-12-18T02:41:00.913Z,-1.5
2022-12-18T02:42:01.040Z,-1.5
2022-12-18T02:43:01.171Z,-1.5
2022-12-18T02:44:01.302Z,-1.5
2022-12-18T02:45:01.432Z,-1.5
2022-12-18T02:46:01.807Z,-1.5
2022-12-18T02:47:02.096Z,-1.5
2022-12-18T02:48:02.236Z,-1.5
2022-12-18T02:49:02.373Z,-1.5
2022-12-18T02:50:02.506Z,-1.5
2022-12-18T02:51:02.639Z,-1.5
2022-12-18T02:52:02.776Z,-1.5
2022-12-18T02:53:02.906Z,-1.5
2022-12-18T02:54:03.038Z,-1.5
2022-12-18T02:55:03.176Z,-1.5
2022-12-18T02:56:03.312Z,-1.5
2022-12-18T02:57:03.432Z,-1.5
2022-12-18T02:58:03.570Z,-1.5
2022-12-18T02:59:03.714Z,-1.5
2022-12-18T03:00:03.846Z,-1.5
2022-12-18T03:01:04.109Z,-1.5
2022-12-18T03:02:05.451Z,-1.5
2022-12-18T03:03:06.213Z,-1.5
2022-12-18T03:04:06.447Z,-1.5
2022-12-18T03:05:06.596Z,-1.5
2022-12-18T03:06:06.731Z,-1.5
2022-12-18T03:07:06.866Z,-1.5
2022-12-18T03:08:07.011Z,-1.5
2022-12-18T03:09:07.165Z,-1.5
2022-12-18T03:10:07.297Z,-1.5
2022-12-18T03:11:07.440Z,-1.5
2022-12-18T03:12:07.575Z,-1.5
2022-12-18T03:13:08.183Z,-1.5
2022-12-18T03:14:09.846Z,-1.5
2022-12-18T03:15:17.739Z,-1.5
2022-12-18T03:16:18.505Z,-1.5
2022-12-18T03:17:19.642Z,-1.5
2022-12-18T03:18:19.774Z,-1.5
2022-12-18T03:19:19.898Z,-1.5
2022-12-18T03:20:20.121Z,-1.5
2022-12-18T03:21:20.364Z,-1.5
2022-12-18T03:22:20.491Z,-1.5
2022-12-18T03:23:26.362Z,-1.5
2022-12-18T03:24:26.702Z,-1.5
2022-12-18T03:25:26.846Z,-1.5
2022-12-18T03:26:26.978Z,-1.5
2022-12-18T03:27:27.104Z,-1.5
2022-12-18T03:28:27.244Z,-1.5
2022-12-18T03:29:27.390Z,-1.5
2022-12-18T03:30:27.521Z,-1.5
2022-12-18T03:31:27.794Z,-1.5
2022-12-18T03:32:28.055Z,-1.5
2022-12-18T03:33:28.181Z,-1.5
2022-12-18T03:34:28.313Z,-1.5
2022-12-18T03:35:28.438Z,-1.5
2022-12-18T03:36:28.570Z,-1.5
2022-12-18T03:37:28.697Z,-1.5
2022-12-18T03:38:28.827Z,-1.5
2022-12-18T03:39:28.964Z,-1.5
2022-12-18T03:40:29.100Z,-1.5
2022-12-18T03:41:29.228Z,-1.5
2022-12-18T03:42:29.352Z,-1.5
2022-12-18T03:43:29.473Z,-1.5
2022-12-18T03:44:29.601Z,-1.5
2022-12-18T03:45:29.726Z,-1.5
2022-12-18T03:46:30.009Z,-1.5
2022-12-18T03:47:30.304Z,-1.5
2022-12-18T03:48:30.440Z,-1.5
2022-12-18T03:49:30.575Z,-1.5
2022-12-18T03:50:30.706Z,-1.5
2022-12-18T03:51:30.850Z,-1.5
2022-12-18T03:52:30.983Z,-1.5
2022-12-18T03:53:31.112Z,-1.5
2022-12-18T03:54:31.241Z,-1.5
2022-12-18T03:55:31.371Z,-1.5
2022-12-18T03:56:31.501Z,-1.5
2022-12-18T03:57:31.628Z,-1.5
2022-12-18T03:58:31.775Z,-1.5
2022-12-18T03:59:31.901Z,-1.5
2022-12-18T04:00:32.031Z,-1.4
2022-12-18T04:01:32.363Z,-1.4
2022-12-18T04:02:33.159Z,-1.4
2022-12-18T04:03:33.778Z,-1.4
2022-12-18T04:04:34.030Z,-1.4
2022-12-18T04:05:34.168Z,-1.4
2022-12-18T04:06:34.300Z,-1.4
2022-12-18T04:07:34.435Z,-1.4
2022-12-18T04:08:34.566Z,-1.4
2022-12-18T04:09:34.701Z,-1.4
2022-12-18T04:10:34.823Z,-1.4
2022-12-18T04:11:34.942Z,-1.4
2022-12-18T04:12:35.075Z,-1.4
2022-12-18T04:13:35.211Z,-1.4
2022-12-18T04:14:35.345Z,-1.4
2022-12-18T04:15:35.763Z,-1.4
2022-12-18T04:16:36.051Z,-1.4
2022-12-18T04:17:36.187Z,-1.4
2022-12-18T04:18:36.322Z,-1.4
2022-12-18T04:19:36.460Z,-1.4
2022-12-18T04:20:36.593Z,-1.5
2022-12-18T04:21:36.722Z,-1.5
2022-12-18T04:22:36.859Z,-1.5
2022-12-18T04:23:37.379Z,-1.5
2022-12-18T04:24:38.369Z,-1.5
2022-12-18T04:25:38.906Z,-1.5
2022-12-18T04:26:39.038Z,-1.5
2022-12-18T04:27:39.173Z,-1.5
2022-12-18T04:28:39.304Z,-1.5
2022-12-18T04:29:39.434Z,-1.5
2022-12-18T04:30:39.568Z,-1.5
2022-12-18T04:31:39.703Z,-1.5
2022-12-18T04:32:39.840Z,-1.5
2022-12-18T04:33:40.765Z,-1.5
2022-12-18T04:34:41.689Z,-1.5
2022-12-18T04:35:41.826Z,-1.5
2022-12-18T04:36:41.956Z,-1.5
2022-12-18T04:37:42.091Z,-1.5
2022-12-18T04:38:42.329Z,-1.5
2022-12-18T04:39:42.467Z,-1.5
2022-12-18T04:40:43.090Z,-1.5
2022-12-18T04:41:43.507Z,-1.5
2022-12-18T04:42:43.743Z,-1.5
2022-12-18T04:43:44.111Z,-1.5
2022-12-18T04:44:44.249Z,-1.5
2022-12-18T04:45:44.380Z,-1.5
2022-12-18T04:46:44.645Z,-1.5
2022-12-18T04:47:44.938Z,-1.5
2022-12-18T04:48:45.076Z,-1.5
2022-12-18T04:49:45.205Z,-1.5
2022-12-18T04:50:45.334Z,-1.5
2022-12-18T04:51:45.478Z,-1.5
2022-12-18T04:52:45.610Z,-1.5
2022-12-18T04:53:45.745Z,-1.5
2022-12-18T04:54:45.881Z,-1.5
2022-12-18T04:55:46.033Z,-1.5
2022-12-18T04:56:46.171Z,-1.5
2022-12-18T04:57:46.335Z,-1.5
2022-12-18T04:58:46.468Z,-1.5
2022-12-18T04:59:46.604Z,-1.5
2022-12-18T05:00:46.736Z,-1.4
2022-12-18T05:01:47.241Z,-1.4
2022-12-18T05:02:47.982Z,-1.4
2022-12-18T05:03:48.664Z,-1.4
2022-12-18T05:04:48.917Z,-1.4
2022-12-18T05:05:49.047Z,-1.4
2022-12-18T05:06:49.270Z,-1.4
2022-12-18T05:07:49.391Z,-1.4
2022-12-18T05:08:49.524Z,-1.4
2022-12-18T05:09:49.652Z,-1.4
2022-12-18T05:10:49.783Z,-1.4
2022-12-18T05:11:49.909Z,-1.4
2022-12-18T05:12:50.031Z,-1.4
2022-12-18T05:13:50.158Z,-1.4
2022-12-18T05:14:50.430Z,-1.4
2022-12-18T05:15:50.675Z,-1.4
2022-12-18T05:16:50.850Z,-1.4
2022-12-18T05:17:50.976Z,-1.4
2022-12-18T05:18:51.111Z,-1.4
2022-12-18T05:19:51.240Z,-1.4
2022-12-18T05:20:51.373Z,-1.4
2022-12-18T05:21:51.502Z,-1.4
2022-12-18T05:22:51.630Z,-1.4
2022-12-18T05:23:51.760Z,-1.4
2022-12-18T05:24:51.890Z,-1.4
2022-12-18T05:25:52.024Z,-1.4
2022-12-18T05:26:52.157Z,-1.4
2022-12-18T05:27:52.288Z,-1.4
2022-12-18T05:28:52.423Z,-1.4
2022-12-18T05:29:52.598Z,-1.4
2022-12-18T05:30:52.844Z,-1.5
2022-12-18T05:31:53.175Z,-1.5
2022-12-18T05:32:53.654Z,-1.5
2022-12-18T05:33:54.445Z,-1.5
2022-12-18T05:34:54.577Z,-1.5
2022-12-18T05:35:54.707Z,-1.5
2022-12-18T05:36:54.901Z,-1.5
2022-12-18T05:37:55.031Z,-1.5
2022-12-18T05:38:55.165Z,-1.5
2022-12-18T05:39:55.294Z,-1.5
2022-12-18T05:40:55.429Z,-1.5
2022-12-18T05:41:55.565Z,-1.5
2022-12-18T05:42:55.708Z,-1.5
2022-12-18T05:43:55.846Z,-1.5
2022-12-18T05:44:55.983Z,-1.5
2022-12-18T05:45:56.123Z,-1.5
2022-12-18T05:46:56.361Z,-1.5
2022-12-18T05:47:57.104Z,-1.5
2022-12-18T05:48:57.306Z,-1.5
2022-12-18T05:49:57.440Z,-1.5
2022-12-18T05:50:57.568Z,-1.4
2022-12-18T05:51:57.703Z,-1.4
2022-12-18T05:52:57.842Z,-1.4
2022-12-18T05:53:57.972Z,-1.4
2022-12-18T05:54:58.112Z,-1.4
2022-12-18T05:55:58.246Z,-1.4
2022-12-18T05:56:58.376Z,-1.4
2022-12-18T05:57:58.507Z,-1.4
2022-12-18T05:58:58.640Z,-1.4
2022-12-18T05:59:58.763Z,-1.4
2022-12-18T06:00:58.904Z,-1.4
2022-12-18T06:01:59.380Z,-1.4
2022-12-18T06:02:59.988Z,-1.4
2022-12-18T06:04:00.662Z,-1.4
2022-12-18T06:05:00.936Z,-1.4
2022-12-18T06:06:01.073Z,-1.4
2022-12-18T06:07:01.199Z,-1.4
2022-12-18T06:08:01.333Z,-1.4
2022-12-18T06:09:01.470Z,-1.4
2022-12-18T06:10:01.662Z,-1.4
2022-12-18T06:11:01.789Z,-1.4
2022-12-18T06:12:01.923Z,-1.4
2022-12-18T06:13:02.058Z,-1.4
2022-12-18T06:14:02.200Z,-1.4
2022-12-18T06:15:02.341Z,-1.4
2022-12-18T06:16:02.536Z,-1.4
2022-12-18T06:17:02.707Z,-1.4
2022-12-18T06:18:02.829Z,-1.4
2022-12-18T06:19:02.958Z,-1.4
2022-12-18T06:20:03.094Z,-1.4
2022-12-18T06:21:03.248Z,-1.4
2022-12-18T06:22:03.374Z,-1.4
2022-12-18T06:23:03.511Z,-1.4
2022-12-18T06:24:03.642Z,-1.4
2022-12-18T06:25:03.783Z,-1.4
2022-12-18T06:26:03.913Z,-1.4
2022-12-18T06:27:04.071Z,-1.4
2022-12-18T06:28:05.296Z,-1.4
2022-12-18T06:29:05.436Z,-1.4
2022-12-18T06:30:05.612Z,-1.3
2022-12-18T06:31:05.874Z,-1.3
2022-12-18T06:32:06.093Z,-1.3
2022-12-18T06:33:06.230Z,-1.3
2022-12-18T06:34:06.357Z,-1.3
2022-12-18T06:35:06.506Z,-1.3
2022-12-18T06:36:06.647Z,-1.3
2022-12-18T06:37:06.784Z,-1.3
2022-12-18T06:38:06.910Z,-1.3
2022-12-18T06:39:07.425Z,-1.3
2022-12-18T06:40:07.857Z,-1.3
2022-12-18T06:41:08.072Z,-1.3
2022-12-18T06:42:08.209Z,-1.3
2022-12-18T06:43:08.496Z,-1.3
2022-12-18T06:44:09.418Z,-1.3
2022-12-18T06:45:12.027Z,-1.3
2022-12-18T06:46:12.240Z,-1.3
2022-12-18T06:47:12.543Z,-1.3
2022-12-18T06:48:12.678Z,-1.3
2022-12-18T06:49:13.826Z,-1.3
2022-12-18T06:50:14.065Z,-1.3
2022-12-18T06:51:14.343Z,-1.3
2022-12-18T06:52:14.476Z,-1.3
2022-12-18T06:53:14.617Z,-1.3
2022-12-18T06:54:14.745Z,-1.3
2022-12-18T06:55:14.877Z,-1.3
2022-12-18T06:56:15.151Z,-1.3
2022-12-18T06:57:15.293Z,-1.3
2022-12-18T06:58:15.434Z,-1.3
2022-12-18T06:59:15.590Z,-1.3
2022-12-18T07:00:15.748Z,-1.3
2022-12-18T07:01:16.227Z,-1.3
2022-12-18T07:02:17.006Z,-1.3
2022-12-18T07:03:17.325Z,-1.3
2022-12-18T07:04:17.459Z,-1.3
2022-12-18T07:05:17.595Z,-1.3
2022-12-18T07:06:17.728Z,-1.3
2022-12-18T07:07:17.863Z,-1.3
2022-12-18T07:08:17.999Z,-1.3
2022-12-18T07:09:18.133Z,-1.3
2022-12-18T07:10:18.264Z,-1.2
2022-12-18T07:11:18.412Z,-1.2
2022-12-18T07:12:18.545Z,-1.2
2022-12-18T07:13:18.684Z,-1.2
2022-12-18T07:14:18.824Z,-1.2
2022-12-18T07:15:18.963Z,-1.2
2022-12-18T07:16:25.799Z,-1.2
2022-12-18T07:17:26.421Z,-1.1
2022-12-18T07:18:26.558Z,-1.1
2022-12-18T07:19:26.694Z,-1.1
2022-12-18T07:20:26.821Z,-1.1
2022-12-18T07:21:26.947Z,-1.1
2022-12-18T07:22:27.192Z,-1.1
2022-12-18T07:23:27.322Z,-1.1
2022-12-18T07:24:27.443Z,-1.1
2022-12-18T07:25:27.576Z,-1.1
2022-12-18T07:26:27.710Z,-1.1
2022-12-18T07:27:27.854Z,-1.1
2022-12-18T07:28:27.980Z,-1.1
2022-12-18T07:29:28.113Z,-1.1
2022-12-18T07:30:28.240Z,-1.1
2022-12-18T07:31:28.609Z,-1.1
2022-12-18T07:32:29.386Z,-1.1
2022-12-18T07:33:30.611Z,-1.1
2022-12-18T07:34:31.033Z,-1.1
2022-12-18T07:35:31.160Z,-1.1
2022-12-18T07:36:31.296Z,-1.1
2022-12-18T07:37:31.429Z,-1.1
2022-12-18T07:38:31.994Z,-1.1
2022-12-18T07:39:32.191Z,-1.1
2022-12-18T07:40:32.326Z,-1.2
2022-12-18T07:41:32.461Z,-1.2
2022-12-18T07:42:32.599Z,-1.2
2022-12-18T07:43:32.743Z,-1.2
2022-12-18T07:44:32.872Z,-1.2
2022-12-18T07:45:33.101Z,-1.2
2022-12-18T07:46:33.258Z,-1.2
2022-12-18T07:47:33.392Z,-1.2
2022-12-18T07:48:33.526Z,-1.2
2022-12-18T07:49:33.656Z,-1.2
2022-12-18T07:50:33.786Z,-1.2
2022-12-18T07:51:33.919Z,-1.2
2022-12-18T07:52:34.210Z,-1.2
2022-12-18T07:53:34.391Z,-1.2
2022-12-18T07:54:34.513Z,-1.2
2022-12-18T07:56:26.336Z,-1.2
2022-12-18T07:58:01.498Z,-1.2
2022-12-18T07:59:01.640Z,-1.2
2022-12-18T08:00:02.093Z,-1.2
2022-12-18T08:01:02.372Z,-1.2
2022-12-18T08:02:02.935Z,-1.2
2022-12-18T08:03:03.562Z,-1.2
2022-12-18T08:04:03.813Z,-1.2
2022-12-18T08:05:03.945Z,-1.2
2022-12-18T08:06:04.073Z,-1.2
2022-12-18T08:07:04.212Z,-1.2
2022-12-18T08:08:04.347Z,-1.2
2022-12-18T08:09:04.478Z,-1.2
2022-12-18T08:10:06.325Z,-1.2
2022-12-18T08:11:06.461Z,-1.2
2022-12-18T08:12:06.592Z,-1.2
2022-12-18T08:13:06.719Z,-1.2
2022-12-18T08:14:06.856Z,-1.2
2022-12-18T08:15:06.993Z,-1.2
2022-12-18T08:16:07.125Z,-1.2
2022-12-18T08:17:07.263Z,-1.2
2022-12-18T08:18:14.364Z,-1.2
2022-12-18T08:19:14.800Z,-1.2
2022-12-18T08:20:14.936Z,-1.2
2022-12-18T08:21:15.066Z,-1.2
2022-12-18T08:22:15.195Z,-1.2
2022-12-18T08:23:15.327Z,-1.2
2022-12-18T08:24:15.464Z,-1.2
2022-12-18T08:25:15.593Z,-1.2
2022-12-18T08:26:15.728Z,-1.2
2022-12-18T08:27:31.381Z,-1.2
2022-12-18T08:28:32.112Z,-1.1
2022-12-18T08:29:32.239Z,-1.1
2022-12-18T08:30:32.572Z,-1.1
2022-12-18T08:31:32.955Z,-1.1
2022-12-18T08:32:33.216Z,-1.1
2022-12-18T08:33:33.349Z,-1.1
2022-12-18T08:34:33.543Z,-1.1
2022-12-18T08:35:41.179Z,-1.1
2022-12-18T08:36:46.265Z,-1.1
2022-12-18T08:37:46.400Z,-1.1
2022-12-18T08:38:47.128Z,-1.1
2022-12-18T08:39:47.262Z,-1.1
2022-12-18T08:40:47.404Z,-1.1
2022-12-18T08:41:47.542Z,-1.1
2022-12-18T08:42:48.001Z,-1.1
2022-12-18T08:43:48.571Z,-1.1
2022-12-18T08:44:48.705Z,-1.1
2022-12-18T08:45:48.994Z,-1.1
2022-12-18T08:46:49.262Z,-1.1
2022-12-18T08:47:49.400Z,-1.1
2022-12-18T08:48:49.532Z,-1.1
2022-12-18T08:49:49.680Z,-1.1
2022-12-18T08:50:49.813Z,-1
2022-12-18T08:51:49.945Z,-1
2022-12-18T08:52:50.102Z,-1
2022-12-18T08:53:50.234Z,-1
2022-12-18T08:54:50.367Z,-1
2022-12-18T08:55:50.676Z,-1
2022-12-18T08:56:50.807Z,-1
2022-12-18T08:57:50.940Z,-1
2022-12-18T08:58:51.072Z,-1
2022-12-18T08:59:51.209Z,-1
2022-12-18T09:00:51.346Z,-0.9
2022-12-18T09:01:51.697Z,-0.9
2022-12-18T09:02:52.195Z,-0.9
2022-12-18T09:03:52.558Z,-0.9
2022-12-18T09:04:57.893Z,-0.9
2022-12-18T09:05:58.126Z,-0.9
2022-12-18T09:06:58.261Z,-0.9
2022-12-18T09:07:58.385Z,-0.9
2022-12-18T09:08:58.623Z,-0.9
2022-12-18T09:09:58.977Z,-0.9
2022-12-18T09:10:59.108Z,-0.9
2022-12-18T09:11:59.235Z,-0.9
2022-12-18T09:12:59.366Z,-0.9
2022-12-18T09:13:59.506Z,-0.9
2022-12-18T09:14:59.648Z,-0.9
2022-12-18T09:15:59.780Z,-0.9
2022-12-18T09:17:00.001Z,-0.9
2022-12-18T09:18:00.256Z,-0.9
2022-12-18T09:19:00.401Z,-0.9
2022-12-18T09:20:00.696Z,-0.8
2022-12-18T09:21:00.832Z,-0.8
2022-12-18T09:22:00.969Z,-0.8
2022-12-18T09:23:01.100Z,-0.8
2022-12-18T09:24:01.248Z,-0.8
2022-12-18T09:25:01.388Z,-0.8
2022-12-18T09:26:01.518Z,-0.8
2022-12-18T09:27:01.653Z,-0.8
2022-12-18T09:28:01.794Z,-0.8
2022-12-18T09:29:01.939Z,-0.8
2022-12-18T09:30:02.079Z,-0.7
2022-12-18T09:31:02.356Z,-0.7
2022-12-18T09:32:02.598Z,-0.7
2022-12-18T09:33:02.739Z,-0.7
2022-12-18T09:34:02.879Z,-0.7
2022-12-18T09:35:03.015Z,-0.7
2022-12-18T09:36:03.142Z,-0.7
2022-12-18T09:37:03.269Z,-0.7
2022-12-18T09:38:03.404Z,-0.7
2022-12-18T09:39:09.040Z,-0.7
2022-12-18T09:40:09.339Z,-0.5
2022-12-18T09:41:09.473Z,-0.5
2022-12-18T09:42:09.625Z,-0.5
2022-12-18T09:43:09.764Z,-0.5
2022-12-18T09:44:09.885Z,-0.5
2022-12-18T09:45:10.111Z,-0.5
2022-12-18T09:46:10.560Z,-0.5
2022-12-18T09:47:10.749Z,-0.5
2022-12-18T09:48:10.866Z,-0.5
2022-12-18T09:49:10.991Z,-0.5
2022-12-18T09:50:17.475Z,-0.3
2022-12-18T09:51:17.775Z,-0.3
2022-12-18T09:52:17.923Z,-0.3
2022-12-18T09:53:18.053Z,-0.3
2022-12-18T09:54:18.186Z,-0.3
2022-12-18T09:55:18.318Z,-0.3
2022-12-18T09:56:18.507Z,-0.3
2022-12-18T09:57:18.638Z,-0.3
2022-12-18T09:58:18.777Z,-0.3
2022-12-18T09:59:18.913Z,-0.3
2022-12-18T10:00:19.051Z,-0.1
2022-12-18T10:01:19.478Z,-0.1
2022-12-18T10:02:20.422Z,-0.1
2022-12-18T10:03:20.794Z,-0.1
2022-12-18T10:04:20.989Z,-0.1
2022-12-18T10:05:21.234Z,-0.1
2022-12-18T10:06:21.364Z,-0.1
2022-12-18T10:07:21.503Z,-0.1
2022-12-18T10:08:21.636Z,-0.1
2022-12-18T10:09:21.768Z,-0.1
2022-12-18T10:10:21.973Z,0
2022-12-18T10:11:22.122Z,0
2022-12-18T10:12:22.252Z,0
2022-12-18T10:13:24.285Z,0
2022-12-18T10:14:25.559Z,0
2022-12-18T10:15:25.688Z,0
2022-12-18T10:16:25.927Z,0
2022-12-18T10:17:26.140Z,0
2022-12-18T10:18:26.277Z,0
2022-12-18T10:19:26.405Z,0
2022-12-18T10:20:26.536Z,0.1
2022-12-18T10:21:26.672Z,0.1
2022-12-18T10:22:27.168Z,0.1
2022-12-18T10:23:28.994Z,0.1
2022-12-18T10:24:29.129Z,0.1
2022-12-18T10:25:29.265Z,0.1
2022-12-18T10:26:29.397Z,0.1
2022-12-18T10:27:29.852Z,0.1
2022-12-18T10:28:31.111Z,0.1
2022-12-18T10:29:31.251Z,0.1
2022-12-18T10:30:31.381Z,0.3
2022-12-18T10:31:31.638Z,0.3
2022-12-18T10:32:31.878Z,0.3
2022-12-18T10:33:32.014Z,0.3
2022-12-18T10:34:32.149Z,0.3
2022-12-18T10:35:32.295Z,0.3
2022-12-18T10:36:32.433Z,0.3
2022-12-18T10:37:32.560Z,0.3
2022-12-18T10:38:32.727Z,0.3
2022-12-18T10:39:32.956Z,0.3
2022-12-18T10:40:33.089Z,0.3
2022-12-18T10:41:33.230Z,0.3
2022-12-18T10:42:33.374Z,0.3
2022-12-18T10:43:33.520Z,0.3
2022-12-18T10:44:33.655Z,0.3
2022-12-18T10:45:33.790Z,0.3
2022-12-18T10:46:33.987Z,0.3
2022-12-18T10:47:34.203Z,0.3
2022-12-18T10:48:34.332Z,0.3
2022-12-18T10:49:34.461Z,0.3
2022-12-18T10:51:11.077Z,0.3
2022-12-18T10:52:14.028Z,0.3
2022-12-18T10:53:14.160Z,0.3
2022-12-18T10:54:14.306Z,0.3
2022-12-18T10:55:14.450Z,0.3
2022-12-18T10:56:14.575Z,0.3
2022-12-18T10:57:14.702Z,0.3
2022-12-18T10:58:14.839Z,0.3
2022-12-18T10:59:14.979Z,0.3
2022-12-18T11:00:15.145Z,0.4
2022-12-18T11:01:15.756Z,0.4
2022-12-18T11:02:16.403Z,0.4
2022-12-18T11:03:16.883Z,0.4
2022-12-18T11:04:17.147Z,0.4
2022-12-18T11:05:17.279Z,0.4
2022-12-18T11:06:17.412Z,0.4
2022-12-18T11:07:17.545Z,0.4
2022-12-18T11:08:17.681Z,0.4
2022-12-18T11:09:17.811Z,0.4
2022-12-18T11:10:18.094Z,0.4
2022-12-18T11:11:18.369Z,0.4
2022-12-18T11:12:18.511Z,0.4
2022-12-18T11:13:18.658Z,0.4
2022-12-18T11:14:18.858Z,0.4
2022-12-18T11:15:19.942Z,0.4
2022-12-18T11:16:20.172Z,0.4
2022-12-18T11:17:27.751Z,0.4
2022-12-18T11:18:27.886Z,0.4
2022-12-18T11:19:28.037Z,0.4
2022-12-18T11:20:28.184Z,0.5
2022-12-18T11:21:28.314Z,0.5
2022-12-18T11:22:28.449Z,0.5
2022-12-18T11:23:28.590Z,0.5
2022-12-18T11:24:28.720Z,0.5
2022-12-18T11:25:34.834Z,0.5
2022-12-18T11:26:36.511Z,0.5
2022-12-18T11:27:36.642Z,0.5
2022-12-18T11:28:36.839Z,0.5
2022-12-18T11:29:44.895Z,0.5
2022-12-18T11:30:47.073Z,0.6
2022-12-18T11:31:47.330Z,0.6
2022-12-18T11:32:48.884Z,0.6
2022-12-18T11:34:28.896Z,0.6
2022-12-18T11:35:31.699Z,0.6
2022-12-18T11:36:33.421Z,0.6
2022-12-18T11:37:34.056Z,0.6
2022-12-18T11:38:34.192Z,0.6
2022-12-18T11:39:34.325Z,0.6
2022-12-18T11:40:41.455Z,0.7
2022-12-18T11:41:41.948Z,0.7
2022-12-18T11:42:42.076Z,0.7
2022-12-18T11:43:42.264Z,0.7
2022-12-18T11:44:42.396Z,0.7
2022-12-18T11:45:42.534Z,0.7
2022-12-18T11:46:42.772Z,0.7
2022-12-18T11:47:42.991Z,0.7
2022-12-18T11:48:43.795Z,0.7
2022-12-18T11:49:44.405Z,0.7
2022-12-18T11:50:44.551Z,0.8
2022-12-18T11:51:44.678Z,0.8
2022-12-18T11:52:44.813Z,0.8
2022-12-18T11:53:44.961Z,0.8
2022-12-18T11:54:45.087Z,0.8
2022-12-18T11:55:45.232Z,0.8
2022-12-18T11:56:45.370Z,0.8
2022-12-18T11:57:45.516Z,0.8
2022-12-18T11:58:45.891Z,0.8
2022-12-18T11:59:46.079Z,0.8
2022-12-18T12:00:46.539Z,0.9
2022-12-18T12:01:47.216Z,0.9
2022-12-18T12:02:47.903Z,0.9
2022-12-18T12:03:48.396Z,0.9
2022-12-18T12:04:48.647Z,0.9
2022-12-18T12:05:48.780Z,0.9
2022-12-18T12:06:48.909Z,0.9
2022-12-18T12:07:49.039Z,0.9
2022-12-18T12:08:49.175Z,0.9
2022-12-18T12:09:50.540Z,0.9
2022-12-18T12:10:50.704Z,0.9
2022-12-18T12:11:50.839Z,0.9
2022-12-18T12:12:51.032Z,0.9
2022-12-18T12:13:51.175Z,0.9
2022-12-18T12:14:51.304Z,0.9
2022-12-18T12:15:51.539Z,0.9
2022-12-18T12:16:51.793Z,0.9
2022-12-18T12:17:51.930Z,0.9
2022-12-18T12:18:52.829Z,0.9
2022-12-18T12:19:53.102Z,0.9
2022-12-18T12:20:53.236Z,0.9
2022-12-18T12:21:53.368Z,0.9
2022-12-18T12:22:53.497Z,0.9
2022-12-18T12:23:53.632Z,0.9
2022-12-18T12:24:53.776Z,0.9
2022-12-18T12:25:53.919Z,0.9
2022-12-18T12:26:54.044Z,0.9
2022-12-18T12:27:54.182Z,0.9
2022-12-18T12:28:54.325Z,0.9
2022-12-18T12:29:54.464Z,0.9
2022-12-18T12:30:54.596Z,1
2022-12-18T12:31:54.844Z,1
2022-12-18T12:32:55.109Z,1
2022-12-18T12:33:55.264Z,1
2022-12-18T12:35:06.145Z,1
2022-12-18T12:36:10.122Z,1
2022-12-18T12:37:10.270Z,1
2022-12-18T12:38:10.403Z,1
2022-12-18T12:39:11.189Z,1
2022-12-18T12:40:53.709Z,1.1
2022-12-18T12:42:02.973Z,1
2022-12-18T12:43:03.109Z,1
2022-12-18T12:44:03.334Z,1
2022-12-18T12:45:03.469Z,1
2022-12-18T12:46:04.416Z,1
2022-12-18T12:47:05.051Z,1
2022-12-18T12:48:05.451Z,1
2022-12-18T12:49:05.622Z,1
2022-12-18T12:50:08.234Z,1
2022-12-18T12:51:08.585Z,1
2022-12-18T12:52:09.590Z,1
2022-12-18T12:53:11.734Z,1
2022-12-18T12:54:11.915Z,1
2022-12-18T13:56:43.678Z,1
2022-12-18T13:57:43.953Z,1.6
2022-12-18T13:58:45.633Z,1.6
2022-12-18T13:59:46.686Z,1.6
2022-12-18T14:00:47.293Z,1.6
2022-12-18T14:01:48.919Z,1.6
2022-12-18T14:02:49.455Z,1.6
2022-12-18T14:03:51.255Z,1.6
2022-12-18T14:04:51.610Z,1.6
2022-12-18T14:05:53.331Z,1.6
2022-12-18T14:06:53.471Z,1.6
2022-12-18T14:07:54.684Z,1.6
2022-12-18T14:08:55.818Z,1.6
2022-12-18T14:10:33.777Z,1.5
2022-12-18T14:11:49.648Z,1.5
2022-12-18T14:12:49.825Z,1.5
2022-12-18T14:13:51.242Z,1.5
2022-12-18T14:14:55.462Z,1.5
2022-12-18T14:15:56.765Z,1.4
2022-12-18T14:16:59.692Z,1.4
2022-12-18T14:18:00.685Z,1.4
2022-12-18T14:19:15.841Z,1.4
2022-12-18T14:20:16.097Z,1.4
2022-12-18T14:21:16.236Z,1.4
2022-12-18T14:22:16.380Z,1.4
2022-12-18T14:23:16.516Z,1.4
2022-12-18T14:24:19.999Z,1.4
2022-12-18T14:25:20.236Z,1.3
2022-12-18T14:26:20.365Z,1.3
2022-12-18T14:27:20.512Z,1.3
2022-12-18T14:28:20.645Z,1.3
2022-12-18T14:29:21.805Z,1.3
2022-12-18T14:30:21.943Z,1.2
2022-12-18T14:31:22.214Z,1.2
2022-12-18T14:32:22.487Z,1.2
2022-12-18T14:33:22.623Z,1.2
2022-12-18T14:34:22.789Z,1.2
2022-12-18T14:35:22.969Z,1.2
2022-12-18T14:36:23.105Z,1.2
2022-12-18T14:37:23.243Z,1.2
2022-12-18T14:38:23.383Z,1.2
2022-12-18T14:39:23.971Z,1.2
2022-12-18T14:40:25.814Z,1
2022-12-18T14:41:25.953Z,1